sensor_id;sensor_type;location;lat;lon;timestamp;P1;durP1;ratioP1;P2;durP2;ratioP2
42754;SDS011;28407;51.830;5.684;2022-11-06T00:00:13;3.90;;;3.50;;
42754;SDS011;28407;51.830;5.684;2022-11-06T00:02:15;4.30;;;3.90;;
42754;SDS011;28407;51.830;5.684;2022-11-06T00:04:15;4.05;;;3.50;;
42754;SDS011;28407;51.830;5.684;2022-11-06T00:06:16;4.65;;;3.60;;
42754;SDS011;28407;51.830;5.684;2022-11-06T00:08:37;5.93;;;4.35;;
42754;SDS011;28407;51.830;5.684;2022-11-06T00:10:40;4.30;;;3.50;;
42754;SDS011;28407;51.830;5.684;2022-11-06T00:12:41;4.65;;;3.67;;
42754;SDS011;28407;51.830;5.684;2022-11-06T00:14:42;3.90;;;3.53;;
42754;SDS011;28407;51.830;5.684;2022-11-06T00:16:43;5.60;;;4.03;;
42754;SDS011;28407;51.830;5.684;2022-11-06T00:18:45;5.05;;;3.63;;
42754;SDS011;28407;51.830;5.684;2022-11-06T00:20:46;4.97;;;3.77;;
42754;SDS011;28407;51.830;5.684;2022-11-06T00:22:46;5.53;;;3.63;;
42754;SDS011;28407;51.830;5.684;2022-11-06T00:24:47;4.80;;;4.30;;
42754;SDS011;28407;51.830;5.684;2022-11-06T00:26:48;4.38;;;3.78;;
42754;SDS011;28407;51.830;5.684;2022-11-06T00:28:49;4.53;;;3.92;;
42754;SDS011;28407;51.830;5.684;2022-11-06T00:30:50;3.95;;;3.50;;
42754;SDS011;28407;51.830;5.684;2022-11-06T00:32:59;5.70;;;3.65;;
42754;SDS011;28407;51.830;5.684;2022-11-06T00:34:59;5.43;;;3.40;;
42754;SDS011;28407;51.830;5.684;2022-11-06T00:37:00;3.60;;;3.00;;
42754;SDS011;28407;51.830;5.684;2022-11-06T00:39:01;3.85;;;3.33;;
42754;SDS011;28407;51.830;5.684;2022-11-06T00:41:02;4.22;;;3.20;;
42754;SDS011;28407;51.830;5.684;2022-11-06T00:43:04;6.30;;;3.60;;
42754;SDS011;28407;51.830;5.684;2022-11-06T00:45:04;4.40;;;3.35;;
42754;SDS011;28407;51.830;5.684;2022-11-06T00:47:05;3.67;;;3.38;;
42754;SDS011;28407;51.830;5.684;2022-11-06T00:49:06;3.63;;;3.00;;
42754;SDS011;28407;51.830;5.684;2022-11-06T00:51:08;4.82;;;3.40;;
42754;SDS011;28407;51.830;5.684;2022-11-06T00:53:17;3.60;;;3.20;;
42754;SDS011;28407;51.830;5.684;2022-11-06T00:55:18;7.03;;;3.80;;
42754;SDS011;28407;51.830;5.684;2022-11-06T00:57:18;5.50;;;3.60;;
42754;SDS011;28407;51.830;5.684;2022-11-06T00:59:19;5.28;;;3.50;;
42754;SDS011;28407;51.830;5.684;2022-11-06T01:01:27;5.85;;;4.68;;
42754;SDS011;28407;51.830;5.684;2022-11-06T01:03:32;4.10;;;3.42;;
42754;SDS011;28407;51.830;5.684;2022-11-06T01:05:33;3.90;;;3.13;;
42754;SDS011;28407;51.830;5.684;2022-11-06T01:07:33;3.38;;;3.08;;
42754;SDS011;28407;51.830;5.684;2022-11-06T01:09:34;4.75;;;3.63;;
42754;SDS011;28407;51.830;5.684;2022-11-06T01:11:37;3.40;;;3.00;;
42754;SDS011;28407;51.830;5.684;2022-11-06T01:13:40;3.55;;;3.22;;
42754;SDS011;28407;51.830;5.684;2022-11-06T01:15:41;6.28;;;3.42;;
42754;SDS011;28407;51.830;5.684;2022-11-06T01:17:42;3.65;;;2.95;;
42754;SDS011;28407;51.830;5.684;2022-11-06T01:19:42;4.43;;;3.38;;
42754;SDS011;28407;51.830;5.684;2022-11-06T01:21:44;3.67;;;3.30;;
42754;SDS011;28407;51.830;5.684;2022-11-06T01:23:46;4.57;;;3.00;;
42754;SDS011;28407;51.830;5.684;2022-11-06T01:25:54;5.43;;;3.00;;
42754;SDS011;28407;51.830;5.684;2022-11-06T01:27:56;5.25;;;3.25;;
42754;SDS011;28407;51.830;5.684;2022-11-06T01:29:57;4.10;;;2.90;;
42754;SDS011;28407;51.830;5.684;2022-11-06T01:31:58;4.32;;;3.05;;
42754;SDS011;28407;51.830;5.684;2022-11-06T01:33:59;4.28;;;3.17;;
42754;SDS011;28407;51.830;5.684;2022-11-06T01:36:00;3.78;;;3.33;;
42754;SDS011;28407;51.830;5.684;2022-11-06T01:38:01;2.88;;;2.65;;
42754;SDS011;28407;51.830;5.684;2022-11-06T01:40:02;5.07;;;3.10;;
42754;SDS011;28407;51.830;5.684;2022-11-06T01:42:03;4.22;;;2.95;;
42754;SDS011;28407;51.830;5.684;2022-11-06T01:46:42;6.82;;;4.63;;
42754;SDS011;28407;51.830;5.684;2022-11-06T01:48:44;5.07;;;3.10;;
42754;SDS011;28407;51.830;5.684;2022-11-06T01:50:54;3.50;;;3.20;;
42754;SDS011;28407;51.830;5.684;2022-11-06T01:52:57;4.32;;;2.60;;
42754;SDS011;28407;51.830;5.684;2022-11-06T01:57:12;4.75;;;3.05;;
42754;SDS011;28407;51.830;5.684;2022-11-06T01:59:14;3.45;;;3.15;;
42754;SDS011;28407;51.830;5.684;2022-11-06T02:01:16;3.20;;;2.90;;
42754;SDS011;28407;51.830;5.684;2022-11-06T02:03:17;2.97;;;2.78;;
42754;SDS011;28407;51.830;5.684;2022-11-06T02:05:18;5.15;;;3.03;;
42754;SDS011;28407;51.830;5.684;2022-11-06T02:07:19;3.55;;;2.80;;
42754;SDS011;28407;51.830;5.684;2022-11-06T02:09:20;4.93;;;2.55;;
42754;SDS011;28407;51.830;5.684;2022-11-06T02:11:20;2.75;;;2.50;;
42754;SDS011;28407;51.830;5.684;2022-11-06T02:15:49;3.00;;;2.70;;
42754;SDS011;28407;51.830;5.684;2022-11-06T02:18:05;6.22;;;3.25;;
42754;SDS011;28407;51.830;5.684;2022-11-06T02:27:12;3.63;;;2.60;;
42754;SDS011;28407;51.830;5.684;2022-11-06T02:29:19;5.32;;;3.80;;
42754;SDS011;28407;51.830;5.684;2022-11-06T02:31:25;2.92;;;2.63;;
42754;SDS011;28407;51.830;5.684;2022-11-06T02:33:32;4.38;;;2.80;;
42754;SDS011;28407;51.830;5.684;2022-11-06T02:35:42;3.88;;;2.80;;
42754;SDS011;28407;51.830;5.684;2022-11-06T02:37:53;6.47;;;3.22;;
42754;SDS011;28407;51.830;5.684;2022-11-06T02:39:57;3.53;;;2.60;;
42754;SDS011;28407;51.830;5.684;2022-11-06T02:42:01;3.28;;;2.50;;
42754;SDS011;28407;51.830;5.684;2022-11-06T02:44:05;4.00;;;2.65;;
42754;SDS011;28407;51.830;5.684;2022-11-06T02:46:09;4.05;;;3.53;;
42754;SDS011;28407;51.830;5.684;2022-11-06T02:48:14;7.10;;;3.13;;
42754;SDS011;28407;51.830;5.684;2022-11-06T02:50:20;4.95;;;2.80;;
42754;SDS011;28407;51.830;5.684;2022-11-06T02:52:45;3.13;;;2.88;;
42754;SDS011;28407;51.830;5.684;2022-11-06T02:54:54;4.70;;;2.88;;
42754;SDS011;28407;51.830;5.684;2022-11-06T02:57:07;3.60;;;3.17;;
42754;SDS011;28407;51.830;5.684;2022-11-06T02:59:14;3.28;;;2.67;;
42754;SDS011;28407;51.830;5.684;2022-11-06T03:01:54;6.07;;;3.78;;
42754;SDS011;28407;51.830;5.684;2022-11-06T03:04:24;4.75;;;3.65;;
42754;SDS011;28407;51.830;5.684;2022-11-06T03:06:37;5.28;;;3.33;;
42754;SDS011;28407;51.830;5.684;2022-11-06T03:08:41;4.30;;;3.25;;
42754;SDS011;28407;51.830;5.684;2022-11-06T03:10:58;4.38;;;3.17;;
42754;SDS011;28407;51.830;5.684;2022-11-06T03:13:15;5.43;;;2.88;;
42754;SDS011;28407;51.830;5.684;2022-11-06T03:17:46;3.22;;;2.83;;
42754;SDS011;28407;51.830;5.684;2022-11-06T03:22:10;5.47;;;2.50;;
42754;SDS011;28407;51.830;5.684;2022-11-06T03:24:33;3.20;;;2.60;;
42754;SDS011;28407;51.830;5.684;2022-11-06T03:26:57;4.70;;;2.90;;
42754;SDS011;28407;51.830;5.684;2022-11-06T03:31:08;4.28;;;3.58;;
42754;SDS011;28407;51.830;5.684;2022-11-06T03:33:16;3.60;;;2.67;;
42754;SDS011;28407;51.830;5.684;2022-11-06T03:35:23;4.80;;;3.65;;
42754;SDS011;28407;51.830;5.684;2022-11-06T03:37:35;3.20;;;2.88;;
42754;SDS011;28407;51.830;5.684;2022-11-06T03:39:47;3.15;;;2.80;;
42754;SDS011;28407;51.830;5.684;2022-11-06T03:41:53;7.05;;;3.53;;
42754;SDS011;28407;51.830;5.684;2022-11-06T03:44:00;5.40;;;3.10;;
42754;SDS011;28407;51.830;5.684;2022-11-06T03:46:05;6.55;;;2.95;;
42754;SDS011;28407;51.830;5.684;2022-11-06T03:48:53;2.60;;;2.40;;
42754;SDS011;28407;51.830;5.684;2022-11-06T03:50:41;5.35;;;3.03;;
42754;SDS011;28407;51.830;5.684;2022-11-06T03:52:59;2.88;;;2.45;;
42754;SDS011;28407;51.830;5.684;2022-11-06T03:55:16;4.53;;;2.70;;
42754;SDS011;28407;51.830;5.684;2022-11-06T03:57:26;5.55;;;2.83;;
42754;SDS011;28407;51.830;5.684;2022-11-06T03:59:33;3.97;;;3.33;;
42754;SDS011;28407;51.830;5.684;2022-11-06T04:01:39;4.78;;;3.53;;
42754;SDS011;28407;51.830;5.684;2022-11-06T04:03:48;3.70;;;2.70;;
42754;SDS011;28407;51.830;5.684;2022-11-06T04:05:55;2.83;;;2.45;;
42754;SDS011;28407;51.830;5.684;2022-11-06T04:08:02;2.88;;;2.65;;
42754;SDS011;28407;51.830;5.684;2022-11-06T04:10:23;3.58;;;2.80;;
42754;SDS011;28407;51.830;5.684;2022-11-06T04:12:42;3.03;;;2.70;;
42754;SDS011;28407;51.830;5.684;2022-11-06T04:15:03;4.03;;;2.70;;
42754;SDS011;28407;51.830;5.684;2022-11-06T04:17:06;4.93;;;2.58;;
42754;SDS011;28407;51.830;5.684;2022-11-06T04:19:12;3.03;;;2.60;;
42754;SDS011;28407;51.830;5.684;2022-11-06T04:23:45;3.67;;;2.70;;
42754;SDS011;28407;51.830;5.684;2022-11-06T04:26:24;2.83;;;2.63;;
42754;SDS011;28407;51.830;5.684;2022-11-06T04:28:36;7.82;;;3.80;;
42754;SDS011;28407;51.830;5.684;2022-11-06T04:30:55;5.03;;;2.50;;
42754;SDS011;28407;51.830;5.684;2022-11-06T04:33:22;3.05;;;2.72;;
42754;SDS011;28407;51.830;5.684;2022-11-06T04:35:34;2.97;;;2.53;;
42754;SDS011;28407;51.830;5.684;2022-11-06T04:37:44;2.55;;;2.33;;
42754;SDS011;28407;51.830;5.684;2022-11-06T04:40:08;6.97;;;3.83;;
42754;SDS011;28407;51.830;5.684;2022-11-06T04:42:15;3.75;;;3.03;;
42754;SDS011;28407;51.830;5.684;2022-11-06T04:46:32;2.72;;;2.42;;
42754;SDS011;28407;51.830;5.684;2022-11-06T04:48:56;2.92;;;2.63;;
42754;SDS011;28407;51.830;5.684;2022-11-06T04:51:00;4.00;;;3.23;;
42754;SDS011;28407;51.830;5.684;2022-11-06T04:53:05;3.80;;;2.30;;
42754;SDS011;28407;51.830;5.684;2022-11-06T04:55:08;3.15;;;2.60;;
42754;SDS011;28407;51.830;5.684;2022-11-06T04:57:09;3.88;;;2.60;;
42754;SDS011;28407;51.830;5.684;2022-11-06T04:59:11;2.65;;;2.35;;
42754;SDS011;28407;51.830;5.684;2022-11-06T05:01:14;2.90;;;2.50;;
42754;SDS011;28407;51.830;5.684;2022-11-06T05:03:15;2.67;;;2.45;;
42754;SDS011;28407;51.830;5.684;2022-11-06T05:05:16;3.83;;;2.55;;
42754;SDS011;28407;51.830;5.684;2022-11-06T05:07:16;4.55;;;2.70;;
42754;SDS011;28407;51.830;5.684;2022-11-06T05:09:17;3.90;;;2.90;;
42754;SDS011;28407;51.830;5.684;2022-11-06T05:11:18;2.70;;;2.50;;
42754;SDS011;28407;51.830;5.684;2022-11-06T05:13:18;4.35;;;3.50;;
42754;SDS011;28407;51.830;5.684;2022-11-06T05:15:19;8.10;;;3.55;;
42754;SDS011;28407;51.830;5.684;2022-11-06T05:17:19;4.75;;;3.13;;
42754;SDS011;28407;51.830;5.684;2022-11-06T05:19:20;5.57;;;2.60;;
42754;SDS011;28407;51.830;5.684;2022-11-06T05:21:20;3.67;;;3.38;;
42754;SDS011;28407;51.830;5.684;2022-11-06T05:23:40;3.65;;;2.60;;
42754;SDS011;28407;51.830;5.684;2022-11-06T05:25:41;2.88;;;2.53;;
42754;SDS011;28407;51.830;5.684;2022-11-06T05:27:42;2.90;;;2.60;;
42754;SDS011;28407;51.830;5.684;2022-11-06T05:29:43;3.42;;;2.50;;
42754;SDS011;28407;51.830;5.684;2022-11-06T05:31:43;3.38;;;2.70;;
42754;SDS011;28407;51.830;5.684;2022-11-06T05:33:44;4.72;;;2.47;;
42754;SDS011;28407;51.830;5.684;2022-11-06T05:35:44;4.18;;;2.72;;
42754;SDS011;28407;51.830;5.684;2022-11-06T05:37:45;4.63;;;2.85;;
42754;SDS011;28407;51.830;5.684;2022-11-06T05:39:46;3.13;;;2.72;;
42754;SDS011;28407;51.830;5.684;2022-11-06T05:41:47;3.30;;;2.50;;
42754;SDS011;28407;51.830;5.684;2022-11-06T05:43:47;3.72;;;2.63;;
42754;SDS011;28407;51.830;5.684;2022-11-06T05:45:48;3.45;;;2.42;;
42754;SDS011;28407;51.830;5.684;2022-11-06T05:47:48;2.55;;;2.35;;
42754;SDS011;28407;51.830;5.684;2022-11-06T05:49:49;2.58;;;2.38;;
42754;SDS011;28407;51.830;5.684;2022-11-06T05:51:49;3.97;;;3.33;;
42754;SDS011;28407;51.830;5.684;2022-11-06T05:53:50;2.92;;;2.63;;
42754;SDS011;28407;51.830;5.684;2022-11-06T05:55:50;3.30;;;2.97;;
42754;SDS011;28407;51.830;5.684;2022-11-06T05:57:51;4.53;;;2.67;;
42754;SDS011;28407;51.830;5.684;2022-11-06T05:59:52;3.13;;;2.70;;
42754;SDS011;28407;51.830;5.684;2022-11-06T06:01:52;4.80;;;2.63;;
42754;SDS011;28407;51.830;5.684;2022-11-06T06:03:53;3.20;;;2.90;;
42754;SDS011;28407;51.830;5.684;2022-11-06T06:05:53;2.72;;;2.40;;
42754;SDS011;28407;51.830;5.684;2022-11-06T06:07:54;2.60;;;2.40;;
42754;SDS011;28407;51.830;5.684;2022-11-06T06:09:54;3.22;;;2.25;;
42754;SDS011;28407;51.830;5.684;2022-11-06T06:11:55;3.50;;;2.72;;
42754;SDS011;28407;51.830;5.684;2022-11-06T06:13:56;5.00;;;2.60;;
42754;SDS011;28407;51.830;5.684;2022-11-06T06:15:59;3.88;;;2.80;;
42754;SDS011;28407;51.830;5.684;2022-11-06T06:18:00;7.93;;;2.80;;
42754;SDS011;28407;51.830;5.684;2022-11-06T06:20:01;3.97;;;2.50;;
42754;SDS011;28407;51.830;5.684;2022-11-06T06:22:01;3.00;;;2.70;;
42754;SDS011;28407;51.830;5.684;2022-11-06T06:24:03;2.55;;;2.35;;
42754;SDS011;28407;51.830;5.684;2022-11-06T06:26:04;5.55;;;2.60;;
42754;SDS011;28407;51.830;5.684;2022-11-06T06:28:05;3.15;;;2.60;;
42754;SDS011;28407;51.830;5.684;2022-11-06T06:30:06;3.80;;;2.90;;
42754;SDS011;28407;51.830;5.684;2022-11-06T06:32:07;4.63;;;2.60;;
42754;SDS011;28407;51.830;5.684;2022-11-06T06:34:07;3.17;;;2.40;;
42754;SDS011;28407;51.830;5.684;2022-11-06T06:36:08;4.15;;;2.90;;
42754;SDS011;28407;51.830;5.684;2022-11-06T06:38:09;3.28;;;2.50;;
42754;SDS011;28407;51.830;5.684;2022-11-06T06:40:09;3.15;;;2.60;;
42754;SDS011;28407;51.830;5.684;2022-11-06T06:42:10;3.83;;;2.55;;
42754;SDS011;28407;51.830;5.684;2022-11-06T06:44:11;3.55;;;2.63;;
42754;SDS011;28407;51.830;5.684;2022-11-06T06:46:12;5.40;;;3.00;;
42754;SDS011;28407;51.830;5.684;2022-11-06T06:48:13;3.30;;;2.95;;
42754;SDS011;28407;51.830;5.684;2022-11-06T06:50:13;4.05;;;2.60;;
42754;SDS011;28407;51.830;5.684;2022-11-06T06:52:14;2.83;;;2.50;;
42754;SDS011;28407;51.830;5.684;2022-11-06T06:54:14;2.85;;;2.45;;
42754;SDS011;28407;51.830;5.684;2022-11-06T06:56:15;5.68;;;2.65;;
42754;SDS011;28407;51.830;5.684;2022-11-06T06:58:16;4.07;;;2.80;;
42754;SDS011;28407;51.830;5.684;2022-11-06T07:00:17;4.90;;;3.30;;
42754;SDS011;28407;51.830;5.684;2022-11-06T07:02:17;4.05;;;2.70;;
42754;SDS011;28407;51.830;5.684;2022-11-06T07:04:18;4.00;;;2.70;;
42754;SDS011;28407;51.830;5.684;2022-11-06T07:06:19;5.07;;;2.70;;
42754;SDS011;28407;51.830;5.684;2022-11-06T07:08:19;3.97;;;2.50;;
42754;SDS011;28407;51.830;5.684;2022-11-06T07:10:20;3.03;;;2.83;;
42754;SDS011;28407;51.830;5.684;2022-11-06T07:12:20;3.28;;;2.50;;
42754;SDS011;28407;51.830;5.684;2022-11-06T07:14:21;3.17;;;2.70;;
42754;SDS011;28407;51.830;5.684;2022-11-06T07:16:22;2.90;;;2.60;;
42754;SDS011;28407;51.830;5.684;2022-11-06T07:18:24;3.33;;;2.95;;
42754;SDS011;28407;51.830;5.684;2022-11-06T07:20:24;5.80;;;2.83;;
42754;SDS011;28407;51.830;5.684;2022-11-06T07:22:25;3.58;;;3.05;;
42754;SDS011;28407;51.830;5.684;2022-11-06T07:24:27;2.80;;;2.60;;
42754;SDS011;28407;51.830;5.684;2022-11-06T07:26:27;3.60;;;2.50;;
42754;SDS011;28407;51.830;5.684;2022-11-06T07:28:28;4.55;;;2.70;;
42754;SDS011;28407;51.830;5.684;2022-11-06T07:30:28;6.05;;;2.60;;
42754;SDS011;28407;51.830;5.684;2022-11-06T07:32:29;3.03;;;2.70;;
42754;SDS011;28407;51.830;5.684;2022-11-06T07:34:31;3.70;;;2.63;;
42754;SDS011;28407;51.830;5.684;2022-11-06T07:36:33;3.00;;;2.58;;
42754;SDS011;28407;51.830;5.684;2022-11-06T07:38:34;5.80;;;2.65;;
42754;SDS011;28407;51.830;5.684;2022-11-06T07:40:35;3.00;;;2.70;;
42754;SDS011;28407;51.830;5.684;2022-11-06T07:42:36;3.95;;;2.50;;
42754;SDS011;28407;51.830;5.684;2022-11-06T07:44:37;3.13;;;2.50;;
42754;SDS011;28407;51.830;5.684;2022-11-06T07:46:38;2.50;;;2.30;;
42754;SDS011;28407;51.830;5.684;2022-11-06T07:48:38;3.90;;;2.83;;
42754;SDS011;28407;51.830;5.684;2022-11-06T07:50:39;6.60;;;2.45;;
42754;SDS011;28407;51.830;5.684;2022-11-06T07:52:39;2.92;;;2.70;;
42754;SDS011;28407;51.830;5.684;2022-11-06T07:54:40;2.92;;;2.35;;
42754;SDS011;28407;51.830;5.684;2022-11-06T07:56:40;4.78;;;3.63;;
42754;SDS011;28407;51.830;5.684;2022-11-06T07:58:41;3.20;;;2.58;;
42754;SDS011;28407;51.830;5.684;2022-11-06T08:00:48;3.65;;;2.92;;
42754;SDS011;28407;51.830;5.684;2022-11-06T08:02:50;4.07;;;2.60;;
42754;SDS011;28407;51.830;5.684;2022-11-06T08:04:52;2.63;;;2.42;;
42754;SDS011;28407;51.830;5.684;2022-11-06T08:06:52;2.60;;;2.35;;
42754;SDS011;28407;51.830;5.684;2022-11-06T08:08:53;3.33;;;3.03;;
42754;SDS011;28407;51.830;5.684;2022-11-06T08:10:53;3.40;;;2.60;;
42754;SDS011;28407;51.830;5.684;2022-11-06T08:12:54;3.40;;;2.60;;
42754;SDS011;28407;51.830;5.684;2022-11-06T08:14:55;4.80;;;3.30;;
42754;SDS011;28407;51.830;5.684;2022-11-06T08:16:56;3.30;;;2.50;;
42754;SDS011;28407;51.830;5.684;2022-11-06T08:18:57;3.17;;;2.60;;
42754;SDS011;28407;51.830;5.684;2022-11-06T08:20:58;2.83;;;2.63;;
42754;SDS011;28407;51.830;5.684;2022-11-06T08:23:02;3.75;;;3.17;;
42754;SDS011;28407;51.830;5.684;2022-11-06T08:25:04;3.33;;;2.42;;
42754;SDS011;28407;51.830;5.684;2022-11-06T08:27:05;3.63;;;3.33;;
42754;SDS011;28407;51.830;5.684;2022-11-06T08:29:06;2.45;;;2.25;;
42754;SDS011;28407;51.830;5.684;2022-11-06T08:31:07;3.15;;;2.85;;
42754;SDS011;28407;51.830;5.684;2022-11-06T08:33:09;3.13;;;2.63;;
42754;SDS011;28407;51.830;5.684;2022-11-06T08:35:10;3.53;;;3.00;;
42754;SDS011;28407;51.830;5.684;2022-11-06T08:37:11;4.25;;;2.80;;
42754;SDS011;28407;51.830;5.684;2022-11-06T08:39:12;2.55;;;2.35;;
42754;SDS011;28407;51.830;5.684;2022-11-06T08:41:12;3.33;;;3.03;;
42754;SDS011;28407;51.830;5.684;2022-11-06T08:43:13;2.40;;;2.20;;
42754;SDS011;28407;51.830;5.684;2022-11-06T08:45:14;3.30;;;3.00;;
42754;SDS011;28407;51.830;5.684;2022-11-06T08:47:14;3.22;;;2.72;;
42754;SDS011;28407;51.830;5.684;2022-11-06T08:49:15;2.85;;;2.65;;
42754;SDS011;28407;51.830;5.684;2022-11-06T08:51:16;2.38;;;2.17;;
42754;SDS011;28407;51.830;5.684;2022-11-06T08:53:16;6.10;;;3.55;;
42754;SDS011;28407;51.830;5.684;2022-11-06T08:55:17;6.80;;;3.90;;
42754;SDS011;28407;51.830;5.684;2022-11-06T08:57:17;2.60;;;2.40;;
42754;SDS011;28407;51.830;5.684;2022-11-06T08:59:18;2.47;;;2.17;;
42754;SDS011;28407;51.830;5.684;2022-11-06T09:01:19;6.15;;;2.60;;
42754;SDS011;28407;51.830;5.684;2022-11-06T09:03:19;3.30;;;2.55;;
42754;SDS011;28407;51.830;5.684;2022-11-06T09:05:20;2.60;;;2.30;;
42754;SDS011;28407;51.830;5.684;2022-11-06T09:07:20;4.15;;;2.50;;
42754;SDS011;28407;51.830;5.684;2022-11-06T09:09:21;3.10;;;2.17;;
42754;SDS011;28407;51.830;5.684;2022-11-06T09:11:21;2.78;;;2.58;;
42754;SDS011;28407;51.830;5.684;2022-11-06T09:13:22;4.13;;;2.58;;
42754;SDS011;28407;51.830;5.684;2022-11-06T09:15:23;4.15;;;3.00;;
42754;SDS011;28407;51.830;5.684;2022-11-06T09:17:23;3.40;;;2.38;;
42754;SDS011;28407;51.830;5.684;2022-11-06T09:19:24;4.45;;;2.35;;
42754;SDS011;28407;51.830;5.684;2022-11-06T09:21:24;4.38;;;3.15;;
42754;SDS011;28407;51.830;5.684;2022-11-06T09:23:25;3.40;;;2.22;;
42754;SDS011;28407;51.830;5.684;2022-11-06T09:25:26;2.47;;;2.28;;
42754;SDS011;28407;51.830;5.684;2022-11-06T09:27:27;6.88;;;2.45;;
42754;SDS011;28407;51.830;5.684;2022-11-06T09:29:28;2.60;;;2.40;;
42754;SDS011;28407;51.830;5.684;2022-11-06T09:31:28;5.28;;;3.08;;
42754;SDS011;28407;51.830;5.684;2022-11-06T09:33:29;3.78;;;2.42;;
42754;SDS011;28407;51.830;5.684;2022-11-06T09:35:30;2.95;;;2.40;;
42754;SDS011;28407;51.830;5.684;2022-11-06T09:37:32;5.28;;;2.40;;
42754;SDS011;28407;51.830;5.684;2022-11-06T09:39:33;2.92;;;2.60;;
42754;SDS011;28407;51.830;5.684;2022-11-06T09:41:44;3.42;;;2.38;;
42754;SDS011;28407;51.830;5.684;2022-11-06T09:45:57;2.33;;;2.13;;
42754;SDS011;28407;51.830;5.684;2022-11-06T09:48:21;2.53;;;2.17;;
42754;SDS011;28407;51.830;5.684;2022-11-06T09:50:30;6.53;;;2.83;;
42754;SDS011;28407;51.830;5.684;2022-11-06T09:52:37;3.35;;;2.30;;
42754;SDS011;28407;51.830;5.684;2022-11-06T09:54:51;3.72;;;2.58;;
42754;SDS011;28407;51.830;5.684;2022-11-06T09:57:01;3.97;;;2.50;;
42754;SDS011;28407;51.830;5.684;2022-11-06T09:59:10;3.88;;;2.30;;
42754;SDS011;28407;51.830;5.684;2022-11-06T10:01:16;4.05;;;2.40;;
42754;SDS011;28407;51.830;5.684;2022-11-06T10:03:39;2.40;;;2.20;;
42754;SDS011;28407;51.830;5.684;2022-11-06T10:05:45;2.65;;;2.28;;
42754;SDS011;28407;51.830;5.684;2022-11-06T10:07:46;3.53;;;2.20;;
42754;SDS011;28407;51.830;5.684;2022-11-06T10:09:52;2.60;;;2.40;;
42754;SDS011;28407;51.830;5.684;2022-11-06T10:12:02;4.45;;;2.47;;
42754;SDS011;28407;51.830;5.684;2022-11-06T10:14:17;2.50;;;2.00;;
42754;SDS011;28407;51.830;5.684;2022-11-06T10:18:53;2.60;;;2.25;;
42754;SDS011;28407;51.830;5.684;2022-11-06T10:23:19;2.60;;;2.40;;
42754;SDS011;28407;51.830;5.684;2022-11-06T10:25:45;2.50;;;2.10;;
42754;SDS011;28407;51.830;5.684;2022-11-06T10:30:18;2.55;;;2.35;;
42754;SDS011;28407;51.830;5.684;2022-11-06T10:35:01;3.92;;;2.55;;
42754;SDS011;28407;51.830;5.684;2022-11-06T10:37:15;3.72;;;2.00;;
42754;SDS011;28407;51.830;5.684;2022-11-06T10:39:21;3.45;;;2.42;;
42754;SDS011;28407;51.830;5.684;2022-11-06T10:41:28;2.85;;;2.17;;
42754;SDS011;28407;51.830;5.684;2022-11-06T10:45:49;2.95;;;2.20;;
42754;SDS011;28407;51.830;5.684;2022-11-06T10:47:55;2.55;;;2.10;;
42754;SDS011;28407;51.830;5.684;2022-11-06T10:50:03;2.25;;;2.05;;
42754;SDS011;28407;51.830;5.684;2022-11-06T10:52:13;2.92;;;2.50;;
42754;SDS011;28407;51.830;5.684;2022-11-06T10:59:25;3.13;;;2.08;;
42754;SDS011;28407;51.830;5.684;2022-11-06T11:01:26;3.72;;;2.60;;
42754;SDS011;28407;51.830;5.684;2022-11-06T11:05:36;3.47;;;2.08;;
42754;SDS011;28407;51.830;5.684;2022-11-06T11:07:39;3.70;;;2.78;;
42754;SDS011;28407;51.830;5.684;2022-11-06T11:09:40;4.57;;;2.53;;
42754;SDS011;28407;51.830;5.684;2022-11-06T11:11:42;2.67;;;2.17;;
42754;SDS011;28407;51.830;5.684;2022-11-06T11:14:11;2.78;;;1.80;;
42754;SDS011;28407;51.830;5.684;2022-11-06T11:16:16;2.95;;;1.98;;
42754;SDS011;28407;51.830;5.684;2022-11-06T11:18:26;3.13;;;2.00;;
42754;SDS011;28407;51.830;5.684;2022-11-06T11:20:35;3.10;;;2.05;;
42754;SDS011;28407;51.830;5.684;2022-11-06T11:22:37;3.15;;;2.20;;
42754;SDS011;28407;51.830;5.684;2022-11-06T11:24:38;3.28;;;2.20;;
42754;SDS011;28407;51.830;5.684;2022-11-06T11:27:05;3.40;;;2.15;;
42754;SDS011;28407;51.830;5.684;2022-11-06T11:29:11;4.00;;;1.85;;
42754;SDS011;28407;51.830;5.684;2022-11-06T11:31:19;3.00;;;1.70;;
42754;SDS011;28407;51.830;5.684;2022-11-06T11:33:26;2.10;;;1.90;;
42754;SDS011;28407;51.830;5.684;2022-11-06T11:35:27;3.25;;;1.95;;
42754;SDS011;28407;51.830;5.684;2022-11-06T11:37:31;4.80;;;2.10;;
42754;SDS011;28407;51.830;5.684;2022-11-06T11:39:36;2.55;;;1.90;;
42754;SDS011;28407;51.830;5.684;2022-11-06T11:41:43;2.67;;;2.10;;
42754;SDS011;28407;51.830;5.684;2022-11-06T11:44:06;2.30;;;1.80;;
42754;SDS011;28407;51.830;5.684;2022-11-06T11:46:17;4.80;;;1.93;;
42754;SDS011;28407;51.830;5.684;2022-11-06T11:48:19;2.97;;;2.15;;
42754;SDS011;28407;51.830;5.684;2022-11-06T11:50:24;2.90;;;1.92;;
42754;SDS011;28407;51.830;5.684;2022-11-06T11:52:28;2.22;;;1.92;;
42754;SDS011;28407;51.830;5.684;2022-11-06T11:54:30;1.98;;;1.83;;
42754;SDS011;28407;51.830;5.684;2022-11-06T11:56:33;4.63;;;1.95;;
42754;SDS011;28407;51.830;5.684;2022-11-06T11:58:53;2.50;;;1.90;;
42754;SDS011;28407;51.830;5.684;2022-11-06T12:00:59;3.08;;;1.90;;
42754;SDS011;28407;51.830;5.684;2022-11-06T12:03:05;2.90;;;1.75;;
42754;SDS011;28407;51.830;5.684;2022-11-06T12:05:14;4.82;;;2.10;;
42754;SDS011;28407;51.830;5.684;2022-11-06T12:07:24;3.20;;;1.85;;
42754;SDS011;28407;51.830;5.684;2022-11-06T12:09:39;2.78;;;1.90;;
42754;SDS011;28407;51.830;5.684;2022-11-06T12:11:42;2.95;;;1.85;;
42754;SDS011;28407;51.830;5.684;2022-11-06T12:13:43;2.97;;;1.77;;
42754;SDS011;28407;51.830;5.684;2022-11-06T12:15:48;3.08;;;1.88;;
42754;SDS011;28407;51.830;5.684;2022-11-06T12:17:58;4.25;;;2.03;;
42754;SDS011;28407;51.830;5.684;2022-11-06T12:20:03;3.35;;;2.00;;
42754;SDS011;28407;51.830;5.684;2022-11-06T12:22:11;2.75;;;1.80;;
42754;SDS011;28407;51.830;5.684;2022-11-06T12:24:19;2.70;;;1.77;;
42754;SDS011;28407;51.830;5.684;2022-11-06T12:26:36;2.80;;;2.00;;
42754;SDS011;28407;51.830;5.684;2022-11-06T12:28:52;2.08;;;1.60;;
42754;SDS011;28407;51.830;5.684;2022-11-06T12:30:59;5.82;;;1.80;;
42754;SDS011;28407;51.830;5.684;2022-11-06T12:33:16;2.03;;;1.60;;
42754;SDS011;28407;51.830;5.684;2022-11-06T12:36:20;2.55;;;1.80;;
42754;SDS011;28407;51.830;5.684;2022-11-06T12:40:31;5.35;;;1.98;;
42754;SDS011;28407;51.830;5.684;2022-11-06T12:42:38;3.17;;;1.95;;
42754;SDS011;28407;51.830;5.684;2022-11-06T12:44:40;3.58;;;2.00;;
42754;SDS011;28407;51.830;5.684;2022-11-06T12:47:02;5.20;;;1.73;;
42754;SDS011;28407;51.830;5.684;2022-11-06T12:56:12;4.03;;;1.90;;
42754;SDS011;28407;51.830;5.684;2022-11-06T12:58:29;1.80;;;1.70;;
42754;SDS011;28407;51.830;5.684;2022-11-06T13:01:33;2.58;;;1.83;;
42754;SDS011;28407;51.830;5.684;2022-11-06T13:05:36;3.38;;;1.80;;
42754;SDS011;28407;51.830;5.684;2022-11-06T13:08:07;2.28;;;1.75;;
42754;SDS011;28407;51.830;5.684;2022-11-06T13:12:41;1.80;;;1.70;;
42754;SDS011;28407;51.830;5.684;2022-11-06T13:17:27;2.47;;;1.85;;
42754;SDS011;28407;51.830;5.684;2022-11-06T13:21:53;1.90;;;1.70;;
42754;SDS011;28407;51.830;5.684;2022-11-06T13:24:15;2.83;;;1.70;;
42754;SDS011;28407;51.830;5.684;2022-11-06T13:26:36;3.38;;;1.50;;
42754;SDS011;28407;51.830;5.684;2022-11-06T13:28:42;3.35;;;1.73;;
42754;SDS011;28407;51.830;5.684;2022-11-06T13:30:49;5.30;;;2.75;;
42754;SDS011;28407;51.830;5.684;2022-11-06T13:32:59;2.65;;;1.80;;
42754;SDS011;28407;51.830;5.684;2022-11-06T13:35:02;2.25;;;1.80;;
42754;SDS011;28407;51.830;5.684;2022-11-06T13:37:11;2.03;;;1.85;;
42754;SDS011;28407;51.830;5.684;2022-11-06T13:39:29;2.40;;;2.17;;
42754;SDS011;28407;51.830;5.684;2022-11-06T13:41:33;2.05;;;1.80;;